createdAt,value
2019-03-22T00:04:29.655Z,16.53
2019-03-22T00:09:32.237Z,16.37
2019-03-22T00:14:38.802Z,16.50
2019-03-22T00:19:55.053Z,17.40
2019-03-22T00:24:58.475Z,17.27
2019-03-22T00:30:01.059Z,17.27
2019-03-22T00:35:09.192Z,16.83
2019-03-22T00:40:15.843Z,17.17
2019-03-22T00:45:33.497Z,17.27
2019-03-22T00:50:36.418Z,16.63
2019-03-22T00:55:39.134Z,17.67
2019-03-22T01:00:41.774Z,16.03
2019-03-22T01:05:44.728Z,16.37
2019-03-22T01:10:47.340Z,17.30
2019-03-22T01:15:50.843Z,16.40
2019-03-22T01:20:58.311Z,16.30
2019-03-22T01:26:02.176Z,16.47
2019-03-22T01:31:04.702Z,16.27
2019-03-22T01:36:07.287Z,16.03
2019-03-22T01:41:09.888Z,16.97
2019-03-22T01:46:12.581Z,17.70
2019-03-22T01:51:15.530Z,17.47
2019-03-22T01:56:18.262Z,16.13
2019-03-22T02:01:22.180Z,17.13
2019-03-22T02:06:29.286Z,18.37
2019-03-22T02:11:32.177Z,17.23
2019-03-22T02:16:34.891Z,19.77
2019-03-22T02:21:37.695Z,20.30
2019-03-22T02:26:40.323Z,20.50
2019-03-22T02:31:43.041Z,19.93
2019-03-22T02:36:45.679Z,19.70
2019-03-22T02:41:48.349Z,21.07
2019-03-22T02:46:50.955Z,22.00
2019-03-22T02:51:57.974Z,21.30
2019-03-22T02:57:00.553Z,22.07
2019-03-22T03:02:03.515Z,20.37
2019-03-22T03:07:06.087Z,21.60
2019-03-22T03:12:08.733Z,21.63
2019-03-22T03:17:11.378Z,21.33
2019-03-22T03:22:14.162Z,20.27
2019-03-22T03:27:16.744Z,20.53
2019-03-22T03:32:24.361Z,20.47
2019-03-22T03:37:41.579Z,19.90
2019-03-22T03:42:44.463Z,20.53
2019-03-22T03:47:47.122Z,18.80
2019-03-22T03:52:49.762Z,19.40
2019-03-22T03:58:00.153Z,20.37
2019-03-22T04:03:04.639Z,18.63
2019-03-22T04:08:41.670Z,19.83
2019-03-22T04:13:44.379Z,20.17
2019-03-22T04:19:47.985Z,18.67
2019-03-22T04:24:50.437Z,18.97
2019-03-22T04:30:03.016Z,22.97
2019-03-22T04:35:24.053Z,20.07
2019-03-22T04:46:14.686Z,23.33
2019-03-22T04:51:20.212Z,21.77
2019-03-22T04:56:32.455Z,22.03
2019-03-22T05:01:38.472Z,21.97
2019-03-22T05:06:42.394Z,20.40
2019-03-22T05:11:46.948Z,19.30
2019-03-22T05:16:53.012Z,18.67
2019-03-22T05:21:56.702Z,19.60
2019-03-22T05:26:59.901Z,19.37
2019-03-22T05:32:07.055Z,19.73
2019-03-22T05:37:09.707Z,21.37
2019-03-22T05:42:12.374Z,21.33
2019-03-22T05:47:15.032Z,21.23
2019-03-22T05:52:17.590Z,20.47
2019-03-22T05:57:20.223Z,20.47
2019-03-22T06:02:24.236Z,20.37
2019-03-22T06:07:27.245Z,18.87
2019-03-22T06:12:29.976Z,19.93
2019-03-22T06:17:34.756Z,19.60
2019-03-22T06:22:37.494Z,20.43
2019-03-22T06:27:40.250Z,20.77
2019-03-22T06:32:42.883Z,20.87
2019-03-22T06:37:45.529Z,19.57
2019-03-22T06:42:48.300Z,20.33
2019-03-22T06:47:50.979Z,19.47
2019-03-22T06:52:53.578Z,20.53
2019-03-22T06:57:57.826Z,19.77
2019-03-22T07:03:01.165Z,18.60
2019-03-22T07:08:03.765Z,20.17
2019-03-22T07:13:06.625Z,20.27
2019-03-22T07:18:09.232Z,20.30
2019-03-22T07:23:11.967Z,20.30
2019-03-22T07:28:14.750Z,19.50
2019-03-22T07:33:17.526Z,19.70
2019-03-22T07:38:20.122Z,20.77
2019-03-22T07:43:22.809Z,20.70
2019-03-22T07:48:25.751Z,20.40
2019-03-22T07:53:28.382Z,22.10
2019-03-22T07:58:31.055Z,23.33
2019-03-22T08:03:36.918Z,20.70
2019-03-22T08:08:39.540Z,21.27
2019-03-22T08:13:42.238Z,21.50
2019-03-22T08:18:45.172Z,21.93
2019-03-22T08:23:49.975Z,20.70
2019-03-22T08:28:52.639Z,21.70
2019-03-22T08:33:55.257Z,21.77
2019-03-22T08:38:59.760Z,22.93
2019-03-22T08:44:02.985Z,22.10
2019-03-22T08:49:08.072Z,20.07
2019-03-22T08:54:10.222Z,21.80
2019-03-22T08:59:13.545Z,21.73
2019-03-22T09:04:16.389Z,23.43
2019-03-22T09:09:19.103Z,22.23
2019-03-22T09:14:21.680Z,23.00
2019-03-22T09:19:24.380Z,22.43
2019-03-22T09:24:38.526Z,22.20
2019-03-22T09:29:31.606Z,24.23
2019-03-22T09:34:34.417Z,22.97
2019-03-22T09:39:37.129Z,22.67
2019-03-22T09:44:43.904Z,22.37
2019-03-22T09:49:45.090Z,21.77
2019-03-22T09:54:47.673Z,23.20
2019-03-22T09:59:50.303Z,23.87
2019-03-22T10:04:52.921Z,24.50
2019-03-22T10:09:55.590Z,25.73
2019-03-22T10:14:58.233Z,24.93
2019-03-22T10:20:00.868Z,23.13
2019-03-22T10:25:03.951Z,24.80
2019-03-22T10:30:07.474Z,26.13
2019-03-22T10:35:10.197Z,27.13
2019-03-22T10:40:13.006Z,25.80
2019-03-22T10:45:17.877Z,26.73
2019-03-22T10:50:20.523Z,26.00
2019-03-22T10:55:29.613Z,28.13
2019-03-22T11:00:28.469Z,27.73
2019-03-22T11:05:31.374Z,28.57
2019-03-22T11:10:33.951Z,29.33
2019-03-22T11:15:36.597Z,28.13
2019-03-22T11:20:39.194Z,27.73
2019-03-22T11:25:41.777Z,27.60
2019-03-22T11:30:44.423Z,29.33
2019-03-22T11:35:46.998Z,28.57
2019-03-22T11:40:49.586Z,27.93
2019-03-22T11:45:52.211Z,28.47
2019-03-22T11:50:54.825Z,28.03
2019-03-22T11:55:57.471Z,29.90
2019-03-22T12:01:00.618Z,29.60
2019-03-22T12:06:04.125Z,28.33
2019-03-22T12:11:06.721Z,28.23
2019-03-22T12:16:09.347Z,27.17
2019-03-22T12:21:11.969Z,27.50
2019-03-22T12:26:14.666Z,25.10
2019-03-22T12:31:19.377Z,28.13
2019-03-22T12:36:21.710Z,28.37
2019-03-22T12:41:24.294Z,27.50
2019-03-22T12:46:26.897Z,27.03
2019-03-22T12:51:29.526Z,29.07
2019-03-22T12:56:32.202Z,31.30
2019-03-22T13:01:34.862Z,31.63
2019-03-22T13:06:37.478Z,29.90
2019-03-22T13:11:40.145Z,30.73
2019-03-22T13:16:42.606Z,29.83
2019-03-22T13:21:45.270Z,29.03
2019-03-22T13:26:47.939Z,27.43
2019-03-22T13:31:50.560Z,28.17
2019-03-22T13:36:53.188Z,28.10
2019-03-22T13:41:55.846Z,26.97
2019-03-22T13:46:58.480Z,27.93
2019-03-22T13:52:01.201Z,28.77
2019-03-22T13:57:03.840Z,27.13
2019-03-22T14:02:06.526Z,28.33
2019-03-22T14:07:09.141Z,29.07
2019-03-22T14:12:11.849Z,27.10
2019-03-22T14:17:15.650Z,28.83
2019-03-22T14:22:18.250Z,28.00
2019-03-22T14:27:20.856Z,29.80
2019-03-22T14:32:23.500Z,30.30
2019-03-22T14:37:26.079Z,26.93
2019-03-22T14:42:28.711Z,26.63
2019-03-22T14:47:31.321Z,28.00
2019-03-22T14:52:34.003Z,27.03
2019-03-22T14:57:36.650Z,26.53
2019-03-22T15:02:39.232Z,27.33
2019-03-22T15:07:44.774Z,28.43
2019-03-22T15:12:47.586Z,27.10
2019-03-22T15:18:07.833Z,26.67
2019-03-22T15:23:38.425Z,25.17
2019-03-22T15:29:07.738Z,25.20
2019-03-22T15:34:39.782Z,25.50
2019-03-22T15:40:13.863Z,23.67
2019-03-22T15:50:19.304Z,24.47
2019-03-22T15:55:21.816Z,23.20
2019-03-22T16:00:24.402Z,23.53
2019-03-22T16:05:27.021Z,22.23
2019-03-22T16:10:29.847Z,21.03
2019-03-22T16:15:32.414Z,20.90
2019-03-22T16:20:35.031Z,20.03
2019-03-22T16:25:37.648Z,21.30
2019-03-22T16:30:40.256Z,20.37
2019-03-22T16:35:42.964Z,20.40
2019-03-22T16:40:45.619Z,21.90
2019-03-22T16:45:50.375Z,20.23
2019-03-22T16:50:53.025Z,20.87
2019-03-22T16:55:55.689Z,22.97
2019-03-22T17:00:58.387Z,23.33
2019-03-22T17:06:01.487Z,24.97
2019-03-22T17:11:04.248Z,25.03
2019-03-22T17:16:06.954Z,24.57
2019-03-22T17:21:10.019Z,27.13
2019-03-22T17:26:12.631Z,28.10
2019-03-22T17:31:15.366Z,28.37
2019-03-22T17:36:20.663Z,30.03
2019-03-22T17:41:23.268Z,31.27
2019-03-22T17:46:25.990Z,30.27
2019-03-22T17:51:30.199Z,31.13
2019-03-22T17:56:33.175Z,30.47
2019-03-22T18:01:35.866Z,30.37
2019-03-22T18:06:38.480Z,31.07
2019-03-22T18:11:41.086Z,29.20
2019-03-22T18:16:44.779Z,30.27
2019-03-22T18:21:47.253Z,30.67
2019-03-22T18:26:50.044Z,31.20
2019-03-22T18:31:52.651Z,29.60
2019-03-22T18:36:55.246Z,31.10
2019-03-22T18:41:57.847Z,31.57
2019-03-22T18:47:00.429Z,31.33
2019-03-22T18:52:03.098Z,32.67
2019-03-22T18:57:05.653Z,32.17
2019-03-22T19:02:08.604Z,33.23
2019-03-22T19:07:11.231Z,34.70
2019-03-22T19:12:13.831Z,32.90
2019-03-22T19:17:16.508Z,34.80
2019-03-22T19:22:21.469Z,34.83
2019-03-22T19:27:24.174Z,34.43
2019-03-22T19:32:26.869Z,34.13
2019-03-22T19:37:29.478Z,33.40
2019-03-22T19:42:32.156Z,33.43
2019-03-22T19:47:34.902Z,32.87
2019-03-22T19:52:37.634Z,34.37
2019-03-22T19:57:40.634Z,32.67
2019-03-22T20:02:43.327Z,31.07
2019-03-22T20:07:45.950Z,34.83
2019-03-22T20:12:48.641Z,33.30
2019-03-22T20:17:51.271Z,33.83
2019-03-22T20:22:54.305Z,32.87
2019-03-22T20:28:00.890Z,34.10
2019-03-22T20:33:03.606Z,34.13
2019-03-22T20:38:06.208Z,33.87
2019-03-22T20:43:08.828Z,32.43
2019-03-22T20:48:11.529Z,33.80
2019-03-22T20:53:14.206Z,33.70
2019-03-22T20:58:16.814Z,32.57
2019-03-22T21:03:19.306Z,33.40
2019-03-22T21:08:21.885Z,33.63
2019-03-22T21:13:24.497Z,32.73
2019-03-22T21:18:27.092Z,33.77
2019-03-22T21:23:36.321Z,34.93
2019-03-22T21:28:34.316Z,34.33
2019-03-22T21:33:36.944Z,33.43
2019-03-22T21:38:39.608Z,33.00
2019-03-22T21:43:42.259Z,33.70
2019-03-22T21:48:44.921Z,33.87
2019-03-22T21:53:50.484Z,33.27
2019-03-22T21:58:53.106Z,33.33
2019-03-22T22:03:55.752Z,32.53
2019-03-22T22:08:59.540Z,33.20
2019-03-22T22:14:03.351Z,34.20
2019-03-22T22:19:09.676Z,32.03
2019-03-22T22:24:12.404Z,33.63
2019-03-22T22:29:15.015Z,32.30
2019-03-22T22:34:17.681Z,34.13
2019-03-22T22:39:20.290Z,34.30
2019-03-22T22:44:22.923Z,36.57
2019-03-22T22:49:27.723Z,32.27
2019-03-22T22:54:30.381Z,32.33
2019-03-22T22:59:32.973Z,31.10
2019-03-22T23:04:35.598Z,31.20
2019-03-22T23:09:38.192Z,30.53
2019-03-22T23:14:43.774Z,31.77
2019-03-22T23:19:46.378Z,30.93
2019-03-22T23:24:49.020Z,30.43
2019-03-22T23:29:51.625Z,28.53
2019-03-22T23:34:59.044Z,26.17
2019-03-22T23:39:58.714Z,24.83
2019-03-22T23:45:01.316Z,26.53
2019-03-22T23:50:04.734Z,26.03
2019-03-22T23:55:07.488Z,24.93
